Time;durP1;ratioP1;P1;durP2;ratioP2;P2;SDS_P1;SDS_P2;PMS_P1;PMS_P2;Temp;Humidity;BMP_temperature;BMP_pressure;BME280_temperature;BME280_humidity;BME280_pressure;Samples;Min_cycle;Max_cycle;Signal;HPM_P1;HPM_P2
2021/01/31 17:22:34;;;;;;;31.25;15.57;;;-2.30;93.20;;;;;;5091890;27;20379;-94
2021/01/31 17:24:59;;;;;;;30.60;16.60;;;-2.30;93.70;;;;;;5108232;28;20101;-93
2021/01/31 17:27:26;;;;;;;32.20;16.95;;;-2.20;94.20;;;;;;5090403;28;20039;-93
2021/01/31 17:29:52;;;;;;;38.78;18.92;;;-2.20;94.50;;;;;;5088318;28;20379;-92
2021/01/31 17:32:19;;;;;;;39.05;20.98;;;-2.10;94.80;;;;;;5091591;28;20524;-93
2021/01/31 17:34:45;;;;;;;41.97;20.95;;;-2.00;95.00;;;;;;5091702;28;20031;-93
2021/01/31 17:37:11;;;;;;;43.42;23.08;;;-1.90;95.20;;;;;;5090532;28;20058;-93
2021/01/31 17:39:36;;;;;;;45.60;23.88;;;-1.80;95.30;;;;;;5083588;28;20434;-93
2021/01/31 17:42:02;;;;;;;46.72;23.20;;;-1.80;95.30;;;;;;5085821;28;20122;-93
2021/01/31 17:44:28;;;;;;;41.67;21.02;;;-1.70;95.40;;;;;;5089636;28;20033;-92
2021/01/31 17:46:54;;;;;;;44.70;22.92;;;-1.60;95.40;;;;;;5089743;28;20028;-93
2021/01/31 17:49:21;;;;;;;44.95;24.90;;;-1.60;95.40;;;;;;5089637;28;20052;-94
2021/01/31 18:09:55;;;;;;;38.50;19.95;;;-1.70;93.40;;;;;;4953576;28;3860819;-95
2021/01/31 18:14:10;;;;;;;37.90;20.42;;;-1.80;93.60;;;;;;5090542;27;1211677;-95
2021/01/31 18:16:36;;;;;;;39.05;20.75;;;-1.80;94.30;;;;;;5095607;28;20042;-95
2021/01/31 18:19:07;;;;;;;40.63;21.73;;;-1.80;94.60;;;;;;5097901;28;20027;-96
2021/01/31 18:21:39;;;;;;;40.47;22.83;;;-1.70;94.80;;;;;;5094782;28;20525;-95
2021/01/31 18:24:06;;;;;;;45.00;22.98;;;-1.70;95.00;;;;;;5093605;28;20034;-95
2021/01/31 18:26:35;;;;;;;42.05;23.77;;;-1.60;95.00;;;;;;5094378;28;20058;-94
2021/01/31 18:29:01;;;;;;;42.33;22.83;;;-1.60;95.10;;;;;;5093782;28;20116;-93
2021/01/31 18:31:28;;;;;;;42.83;22.95;;;-1.50;95.20;;;;;;5074385;28;20051;-93
2021/01/31 18:33:54;;;;;;;38.65;21.15;;;-1.50;95.20;;;;;;5084240;28;20036;-95
2021/01/31 18:36:20;;;;;;;42.15;22.73;;;-1.50;95.30;;;;;;5111009;28;20054;-94
2021/01/31 18:38:46;;;;;;;43.67;24.23;;;-1.40;95.30;;;;;;5075562;28;20024;-93
2021/01/31 18:41:14;;;;;;;42.38;23.17;;;-1.40;95.20;;;;;;5082754;28;20019;-93
2021/01/31 18:43:52;;;;;;;46.30;24.92;;;-1.40;95.30;;;;;;5095779;28;20021;-95
2021/01/31 18:46:48;;;;;;;47.10;24.73;;;-1.30;95.20;;;;;;5111665;28;20094;-95
2021/01/31 18:49:35;;;;;;;47.67;23.55;;;-1.30;95.00;;;;;;5093011;28;20039;-95
2021/01/31 18:52:00;;;;;;;43.88;23.45;;;-1.30;95.10;;;;;;5091893;28;20033;-95
2021/01/31 18:54:26;;;;;;;39.15;23.08;;;-1.30;95.20;;;;;;5107823;28;20069;-95
2021/01/31 18:56:53;;;;;;;49.13;27.00;;;-1.30;95.20;;;;;;5080301;28;20016;-95
2021/01/31 18:59:20;;;;;;;47.78;25.52;;;-1.20;95.10;;;;;;5092014;28;20111;-95
2021/01/31 19:02:36;;;;;;;54.78;26.40;;;-1.30;94.50;;;;;;5071248;28;20437;-94
2021/01/31 19:05:03;;;;;;;53.25;26.77;;;-1.20;94.90;;;;;;5053216;28;20424;-95
2021/01/31 19:07:29;;;;;;;41.70;23.70;;;-1.30;94.90;;;;;;5051135;28;20402;-95
2021/01/31 19:09:54;;;;;;;48.15;25.23;;;-1.30;94.90;;;;;;5059210;28;20029;-95
2021/01/31 19:12:20;;;;;;;49.42;25.38;;;-1.30;94.90;;;;;;5065302;28;20082;-94
2021/01/31 19:14:46;;;;;;;49.92;28.30;;;-1.30;94.80;;;;;;5073170;28;20477;-95
2021/01/31 19:17:11;;;;;;;46.53;27.23;;;-1.30;94.80;;;;;;5070140;28;20430;-95
2021/01/31 19:19:39;;;;;;;59.70;30.77;;;-1.30;94.70;;;;;;5069988;28;20025;-93
2021/01/31 19:22:05;;;;;;;58.65;32.85;;;-1.30;94.70;;;;;;5071010;28;20031;-94
2021/01/31 19:24:30;;;;;;;62.33;34.10;;;-1.40;94.70;;;;;;5071578;28;20021;-96
2021/01/31 19:26:56;;;;;;;60.53;34.38;;;-1.40;94.70;;;;;;5069987;28;20021;-95
2021/01/31 19:29:22;;;;;;;60.60;34.33;;;-1.40;94.70;;;;;;5069885;28;20025;-96
2021/01/31 19:31:47;;;;;;;56.88;32.70;;;-1.40;94.70;;;;;;5070157;28;20074;-96
2021/01/31 19:34:15;;;;;;;61.67;32.45;;;-1.40;94.70;;;;;;5069979;28;20025;-95
2021/01/31 19:36:41;;;;;;;67.57;34.65;;;-1.40;94.70;;;;;;5069625;28;20025;-94
2021/01/31 19:39:06;;;;;;;63.75;33.75;;;-1.40;94.70;;;;;;5069903;28;20021;-95
2021/01/31 19:41:33;;;;;;;67.47;37.78;;;-1.40;94.70;;;;;;5056731;28;20079;-94
2021/01/31 19:43:58;;;;;;;67.35;34.88;;;-1.40;94.80;;;;;;5049697;28;20474;-95
2021/01/31 19:46:25;;;;;;;56.50;30.63;;;-1.40;94.70;;;;;;5069223;28;20032;-95
2021/01/31 19:48:50;;;;;;;57.38;29.83;;;-1.40;94.70;;;;;;5052134;28;20021;-95
2021/01/31 19:51:17;;;;;;;52.00;27.35;;;-1.40;94.70;;;;;;5051192;28;20025;-96
2021/01/31 19:53:53;;;;;;;49.65;26.17;;;-1.40;94.70;;;;;;5057616;28;20025;-95
2021/01/31 19:56:18;;;;;;;50.92;26.35;;;-1.40;94.70;;;;;;5079441;28;20048;-96
2021/01/31 19:58:44;;;;;;;44.67;25.27;;;-1.50;94.50;;;;;;5064248;28;20470;-96
2021/01/31 20:01:10;;;;;;;51.03;27.73;;;-1.50;94.60;;;;;;5051893;28;20112;-96
2021/01/31 20:03:37;;;;;;;50.25;27.20;;;-1.50;94.60;;;;;;5055503;28;20029;-96
2021/01/31 20:06:03;;;;;;;51.50;28.48;;;-1.50;94.60;;;;;;5059523;28;20116;-94
2021/01/31 20:08:29;;;;;;;51.33;29.02;;;-1.50;94.50;;;;;;5055845;28;20029;-95
2021/01/31 20:10:55;;;;;;;60.67;31.17;;;-1.50;94.50;;;;;;5056461;28;20381;-95
2021/01/31 20:13:21;;;;;;;60.70;32.47;;;-1.50;94.50;;;;;;5061165;28;20033;-95
2021/01/31 20:15:47;;;;;;;61.92;33.03;;;-1.50;94.50;;;;;;5045702;28;20030;-96
2021/01/31 20:18:19;;;;;;;57.25;30.88;;;-1.50;94.50;;;;;;5049907;28;20033;-95
2021/01/31 20:20:47;;;;;;;60.97;32.63;;;-1.60;94.40;;;;;;5045152;28;20025;-95
2021/01/31 20:23:14;;;;;;;56.53;30.52;;;-1.60;94.40;;;;;;5056899;28;20031;-95
